<?xml version="1.0" encoding="UTF-8" standalone="no" ?>
<gpx xmlns="http://www.topografix.com/GPX/1/1" xmlns:xsi="http://www.w3.org/2001/XMLSchema-instance" xsi:schemaLocation="http://www.topografix.com/GPX/1/1 http://www.topografix.com/GPX/1/1/gpx.xsd" version="1.1" creator="VisuGPX - https://www.visugpx.com">
  <metadata>
    <name>034_Circuit 44 km édité par cth85.com</name>
    <desc><![CDATA[Circuit de 54 km passant par:
Les Herbiers
l'aurière
Mesnard la Barotière
la boule
le gué jourdain
Mouchamps
D113 Saint Prouant
D26 Le Boupère
D79 la bonnelière
Saint Paul en Pareds
à droite, les noyers
au stop, direction Les Herbiers
au rond point, à gauche, hautacam
Ardelay
Les Herbiers.]]></desc>
  </metadata>
  <trk>
    <name><![CDATA[44_034 cth85.com]]></name>
    <extensions>
      <line xmlns="http://www.topografix.com/GPX/gpx_style/0/2">
        <color>0000FF</color>
        <width>4</width>
      </line>
    </extensions>
    <trkseg>
      <trkpt lat="46.86381" lon="-1.00562">
        <ele>119.2</ele>
        <time>2010-01-01T00:00:26Z</time>
      </trkpt>
      <trkpt lat="46.86335" lon="-1.00614">
        <ele>119</ele>
        <time>2010-01-01T00:00:36Z</time>
      </trkpt>
      <trkpt lat="46.86315" lon="-1.00632">
        <ele>119</ele>
        <time>2010-01-01T00:00:39Z</time>
      </trkpt>
      <trkpt lat="46.8627" lon="-1.00662">
        <ele>118</ele>
        <time>2010-01-01T00:00:48Z</time>
      </trkpt>
      <trkpt lat="46.86243" lon="-1.00675">
        <ele>117</ele>
        <time>2010-01-01T00:00:52Z</time>
      </trkpt>
      <trkpt lat="46.86258" lon="-1.00782">
        <ele>119</ele>
        <time>2010-01-01T00:01:05Z</time>
      </trkpt>
      <trkpt lat="46.8626" lon="-1.00809">
        <ele>119</ele>
        <time>2010-01-01T00:01:08Z</time>
      </trkpt>
      <trkpt lat="46.86259" lon="-1.00837">
        <ele>119</ele>
        <time>2010-01-01T00:01:11Z</time>
      </trkpt>
      <trkpt lat="46.8625" lon="-1.00873">
        <ele>119</ele>
        <time>2010-01-01T00:01:16Z</time>
      </trkpt>
      <trkpt lat="46.86155" lon="-1.01112">
        <ele>116</ele>
        <time>2010-01-01T00:01:47Z</time>
      </trkpt>
      <trkpt lat="46.86178" lon="-1.01135">
        <ele>116</ele>
        <time>2010-01-01T00:01:52Z</time>
      </trkpt>
      <trkpt lat="46.86177" lon="-1.01141">
        <ele>115</ele>
        <time>2010-01-01T00:01:52Z</time>
      </trkpt>
      <trkpt lat="46.86178" lon="-1.01146">
        <ele>115</ele>
        <time>2010-01-01T00:01:53Z</time>
      </trkpt>
      <trkpt lat="46.86136" lon="-1.01209">
        <ele>114</ele>
        <time>2010-01-01T00:02:03Z</time>
      </trkpt>
      <trkpt lat="46.86073" lon="-1.01289">
        <ele>113</ele>
        <time>2010-01-01T00:02:17Z</time>
      </trkpt>
      <trkpt lat="46.86054" lon="-1.01308">
        <ele>113</ele>
        <time>2010-01-01T00:02:21Z</time>
      </trkpt>
      <trkpt lat="46.86081" lon="-1.0138">
        <ele>112</ele>
        <time>2010-01-01T00:02:30Z</time>
      </trkpt>
      <trkpt lat="46.86064" lon="-1.01402">
        <ele>112</ele>
        <time>2010-01-01T00:02:34Z</time>
      </trkpt>
      <trkpt lat="46.86015" lon="-1.01479">
        <ele>110</ele>
        <time>2010-01-01T00:02:46Z</time>
      </trkpt>
      <trkpt lat="46.86038" lon="-1.01541">
        <ele>110</ele>
        <time>2010-01-01T00:02:54Z</time>
      </trkpt>
      <trkpt lat="46.86093" lon="-1.01627">
        <ele>111</ele>
        <time>2010-01-01T00:03:07Z</time>
      </trkpt>
      <trkpt lat="46.86136" lon="-1.01692">
        <ele>112</ele>
        <time>2010-01-01T00:03:18Z</time>
      </trkpt>
      <trkpt lat="46.86138" lon="-1.01709">
        <ele>113</ele>
        <time>2010-01-01T00:03:20Z</time>
      </trkpt>
      <trkpt lat="46.86125" lon="-1.01862">
        <ele>112</ele>
        <time>2010-01-01T00:03:37Z</time>
      </trkpt>
      <trkpt lat="46.86089" lon="-1.01912">
        <ele>113</ele>
        <time>2010-01-01T00:03:46Z</time>
      </trkpt>
      <trkpt lat="46.86085" lon="-1.01907">
        <ele>113</ele>
        <time>2010-01-01T00:03:46Z</time>
      </trkpt>
      <trkpt lat="46.86077" lon="-1.01906">
        <ele>113</ele>
        <time>2010-01-01T00:03:48Z</time>
      </trkpt>
      <trkpt lat="46.86071" lon="-1.0191">
        <ele>113</ele>
        <time>2010-01-01T00:03:49Z</time>
      </trkpt>
      <trkpt lat="46.86068" lon="-1.01917">
        <ele>113</ele>
        <time>2010-01-01T00:03:50Z</time>
      </trkpt>
      <trkpt lat="46.86067" lon="-1.01923">
        <ele>113</ele>
        <time>2010-01-01T00:03:51Z</time>
      </trkpt>
      <trkpt lat="46.86068" lon="-1.01932">
        <ele>113</ele>
        <time>2010-01-01T00:03:52Z</time>
      </trkpt>
      <trkpt lat="46.86063" lon="-1.01936">
        <ele>113</ele>
        <time>2010-01-01T00:03:53Z</time>
      </trkpt>
      <trkpt lat="46.86044" lon="-1.01951">
        <ele>113</ele>
        <time>2010-01-01T00:03:56Z</time>
      </trkpt>
      <trkpt lat="46.85951" lon="-1.02008">
        <ele>111</ele>
        <time>2010-01-01T00:04:13Z</time>
      </trkpt>
      <trkpt lat="46.8595" lon="-1.02016">
        <ele>110</ele>
        <time>2010-01-01T00:04:14Z</time>
      </trkpt>
      <trkpt lat="46.85945" lon="-1.0202">
        <ele>110</ele>
        <time>2010-01-01T00:04:15Z</time>
      </trkpt>
      <trkpt lat="46.85941" lon="-1.02032">
        <ele>110</ele>
        <time>2010-01-01T00:04:16Z</time>
      </trkpt>
      <trkpt lat="46.8591" lon="-1.02085">
        <ele>108</ele>
        <time>2010-01-01T00:04:24Z</time>
      </trkpt>
      <trkpt lat="46.85904" lon="-1.02121">
        <ele>109</ele>
        <time>2010-01-01T00:04:29Z</time>
      </trkpt>
      <trkpt lat="46.85903" lon="-1.02142">
        <ele>109</ele>
        <time>2010-01-01T00:04:31Z</time>
      </trkpt>
      <trkpt lat="46.85899" lon="-1.02155">
        <ele>109</ele>
        <time>2010-01-01T00:04:33Z</time>
      </trkpt>
      <trkpt lat="46.8585" lon="-1.02243">
        <ele>109</ele>
        <time>2010-01-01T00:04:46Z</time>
      </trkpt>
      <trkpt lat="46.85841" lon="-1.0227">
        <ele>110</ele>
        <time>2010-01-01T00:04:49Z</time>
      </trkpt>
      <trkpt lat="46.85783" lon="-1.02302">
        <ele>110</ele>
        <time>2010-01-01T00:04:59Z</time>
      </trkpt>
      <trkpt lat="46.85761" lon="-1.02327">
        <ele>111</ele>
        <time>2010-01-01T00:05:04Z</time>
      </trkpt>
      <trkpt lat="46.85707" lon="-1.02413">
        <ele>110</ele>
        <time>2010-01-01T00:05:17Z</time>
      </trkpt>
      <trkpt lat="46.85671" lon="-1.02493">
        <ele>108</ele>
        <time>2010-01-01T00:05:28Z</time>
      </trkpt>
      <trkpt lat="46.85671" lon="-1.025">
        <ele>108</ele>
        <time>2010-01-01T00:05:29Z</time>
      </trkpt>
      <trkpt lat="46.85667" lon="-1.02508">
        <ele>108</ele>
        <time>2010-01-01T00:05:30Z</time>
      </trkpt>
      <trkpt lat="46.85713" lon="-1.02568">
        <ele>110</ele>
        <time>2010-01-01T00:05:40Z</time>
      </trkpt>
      <trkpt lat="46.85775" lon="-1.0265">
        <ele>109</ele>
        <time>2010-01-01T00:05:54Z</time>
      </trkpt>
      <trkpt lat="46.85781" lon="-1.02658">
        <ele>109</ele>
        <time>2010-01-01T00:05:56Z</time>
      </trkpt>
      <trkpt lat="46.85786" lon="-1.02659">
        <ele>109</ele>
        <time>2010-01-01T00:05:57Z</time>
      </trkpt>
      <trkpt lat="46.85786" lon="-1.02666">
        <ele>109</ele>
        <time>2010-01-01T00:05:57Z</time>
      </trkpt>
      <trkpt lat="46.8579" lon="-1.02671">
        <ele>108</ele>
        <time>2010-01-01T00:05:58Z</time>
      </trkpt>
      <trkpt lat="46.85792" lon="-1.02671">
        <ele>108</ele>
        <time>2010-01-01T00:05:59Z</time>
      </trkpt>
      <trkpt lat="46.85798" lon="-1.02691">
        <ele>108</ele>
        <time>2010-01-01T00:06:01Z</time>
      </trkpt>
      <trkpt lat="46.85824" lon="-1.02721">
        <ele>107</ele>
        <time>2010-01-01T00:06:07Z</time>
      </trkpt>
      <trkpt lat="46.85831" lon="-1.02739">
        <ele>107</ele>
        <time>2010-01-01T00:06:09Z</time>
      </trkpt>
      <trkpt lat="46.85862" lon="-1.02945">
        <ele>108</ele>
        <time>2010-01-01T00:06:33Z</time>
      </trkpt>
      <trkpt lat="46.85892" lon="-1.03062">
        <ele>108</ele>
        <time>2010-01-01T00:06:47Z</time>
      </trkpt>
      <trkpt lat="46.85897" lon="-1.03141">
        <ele>106</ele>
        <time>2010-01-01T00:06:56Z</time>
      </trkpt>
      <trkpt lat="46.85901" lon="-1.03153">
        <ele>106</ele>
        <time>2010-01-01T00:06:58Z</time>
      </trkpt>
      <trkpt lat="46.8589" lon="-1.03172">
        <ele>106</ele>
        <time>2010-01-01T00:07:01Z</time>
      </trkpt>
      <trkpt lat="46.85826" lon="-1.03243">
        <ele>103</ele>
        <time>2010-01-01T00:07:14Z</time>
      </trkpt>
      <trkpt lat="46.8582" lon="-1.03254">
        <ele>103</ele>
        <time>2010-01-01T00:07:16Z</time>
      </trkpt>
      <trkpt lat="46.85818" lon="-1.03267">
        <ele>103</ele>
        <time>2010-01-01T00:07:17Z</time>
      </trkpt>
      <trkpt lat="46.85819" lon="-1.0328">
        <ele>103</ele>
        <time>2010-01-01T00:07:19Z</time>
      </trkpt>
      <trkpt lat="46.85873" lon="-1.0355">
        <ele>106</ele>
        <time>2010-01-01T00:07:51Z</time>
      </trkpt>
      <trkpt lat="46.85858" lon="-1.03676">
        <ele>106</ele>
        <time>2010-01-01T00:08:05Z</time>
      </trkpt>
      <trkpt lat="46.85803" lon="-1.0365">
        <ele>107</ele>
      </trkpt>
      <trkpt lat="46.85752" lon="-1.03621">
        <ele>105.1</ele>
      </trkpt>
      <trkpt lat="46.85721" lon="-1.03622">
        <ele>104.4</ele>
      </trkpt>
      <trkpt lat="46.85668" lon="-1.03635">
        <ele>103.1</ele>
      </trkpt>
      <trkpt lat="46.85626" lon="-1.03648">
        <ele>102.5</ele>
      </trkpt>
      <trkpt lat="46.8555" lon="-1.03671">
        <ele>101</ele>
      </trkpt>
      <trkpt lat="46.85452" lon="-1.03702">
        <ele>99.5</ele>
      </trkpt>
      <trkpt lat="46.85425" lon="-1.03704">
        <ele>98.6</ele>
      </trkpt>
      <trkpt lat="46.8536" lon="-1.0372">
        <ele>96.9</ele>
      </trkpt>
      <trkpt lat="46.85272" lon="-1.03747">
        <ele>92.8</ele>
      </trkpt>
      <trkpt lat="46.85241" lon="-1.03756">
        <ele>92</ele>
      </trkpt>
      <trkpt lat="46.85197" lon="-1.03818">
        <ele>92.5</ele>
      </trkpt>
      <trkpt lat="46.85157" lon="-1.0388">
        <ele>95.1</ele>
      </trkpt>
      <trkpt lat="46.85142" lon="-1.03906">
        <ele>95.8</ele>
      </trkpt>
      <trkpt lat="46.85128" lon="-1.03931">
        <ele>95.7</ele>
      </trkpt>
      <trkpt lat="46.85081" lon="-1.03994">
        <ele>94.1</ele>
      </trkpt>
      <trkpt lat="46.85043" lon="-1.04037">
        <ele>93.6</ele>
      </trkpt>
      <trkpt lat="46.8498" lon="-1.04111">
        <ele>95.7</ele>
      </trkpt>
      <trkpt lat="46.84934" lon="-1.0416">
        <ele>97.4</ele>
      </trkpt>
      <trkpt lat="46.84919" lon="-1.04173">
        <ele>97.7</ele>
      </trkpt>
      <trkpt lat="46.84912" lon="-1.04186">
        <ele>97.5</ele>
      </trkpt>
      <trkpt lat="46.84904" lon="-1.04198">
        <ele>97.9</ele>
      </trkpt>
      <trkpt lat="46.84896" lon="-1.04212">
        <ele>98.5</ele>
      </trkpt>
      <trkpt lat="46.84874" lon="-1.04242">
        <ele>99.6</ele>
      </trkpt>
      <trkpt lat="46.84873" lon="-1.04254">
        <ele>99.4</ele>
      </trkpt>
      <trkpt lat="46.84868" lon="-1.04263">
        <ele>99.5</ele>
      </trkpt>
      <trkpt lat="46.84859" lon="-1.04271">
        <ele>100.2</ele>
      </trkpt>
      <trkpt lat="46.8485" lon="-1.04273">
        <ele>100.2</ele>
      </trkpt>
      <trkpt lat="46.84843" lon="-1.04273">
        <ele>100.2</ele>
      </trkpt>
      <trkpt lat="46.84835" lon="-1.04262">
        <ele>100.6</ele>
      </trkpt>
      <trkpt lat="46.84823" lon="-1.04264">
        <ele>100.1</ele>
      </trkpt>
      <trkpt lat="46.8481" lon="-1.0427">
        <ele>99.8</ele>
      </trkpt>
      <trkpt lat="46.84803" lon="-1.0428">
        <ele>99.8</ele>
      </trkpt>
      <trkpt lat="46.84796" lon="-1.0429">
        <ele>99.1</ele>
      </trkpt>
      <trkpt lat="46.84791" lon="-1.04302">
        <ele>98.7</ele>
      </trkpt>
      <trkpt lat="46.84784" lon="-1.04312">
        <ele>98.6</ele>
      </trkpt>
      <trkpt lat="46.84774" lon="-1.04319">
        <ele>98.5</ele>
      </trkpt>
      <trkpt lat="46.84766" lon="-1.04328">
        <ele>98.2</ele>
      </trkpt>
      <trkpt lat="46.84759" lon="-1.0433">
        <ele>98.1</ele>
      </trkpt>
      <trkpt lat="46.84739" lon="-1.04344">
        <ele>98</ele>
      </trkpt>
      <trkpt lat="46.847" lon="-1.04367">
        <ele>98.8</ele>
      </trkpt>
      <trkpt lat="46.84683" lon="-1.04377">
        <ele>99.4</ele>
      </trkpt>
      <trkpt lat="46.84655" lon="-1.04401">
        <ele>100.4</ele>
      </trkpt>
      <trkpt lat="46.84619" lon="-1.04432">
        <ele>101.9</ele>
      </trkpt>
      <trkpt lat="46.84592" lon="-1.04456">
        <ele>102.8</ele>
      </trkpt>
      <trkpt lat="46.84573" lon="-1.04476">
        <ele>103.5</ele>
      </trkpt>
      <trkpt lat="46.84551" lon="-1.04501">
        <ele>104.2</ele>
      </trkpt>
      <trkpt lat="46.84538" lon="-1.04523">
        <ele>104.6</ele>
      </trkpt>
      <trkpt lat="46.84517" lon="-1.04558">
        <ele>105.4</ele>
      </trkpt>
      <trkpt lat="46.84501" lon="-1.04587">
        <ele>106</ele>
      </trkpt>
      <trkpt lat="46.84488" lon="-1.04611">
        <ele>106.5</ele>
      </trkpt>
      <trkpt lat="46.84472" lon="-1.04634">
        <ele>107</ele>
      </trkpt>
      <trkpt lat="46.8446" lon="-1.04644">
        <ele>107.4</ele>
      </trkpt>
      <trkpt lat="46.84446" lon="-1.04654">
        <ele>107.9</ele>
      </trkpt>
      <trkpt lat="46.84435" lon="-1.04659">
        <ele>108</ele>
      </trkpt>
      <trkpt lat="46.84416" lon="-1.04671">
        <ele>108</ele>
      </trkpt>
      <trkpt lat="46.84399" lon="-1.04685">
        <ele>108</ele>
      </trkpt>
      <trkpt lat="46.84386" lon="-1.04697">
        <ele>108</ele>
      </trkpt>
      <trkpt lat="46.84375" lon="-1.04705">
        <ele>108</ele>
      </trkpt>
      <trkpt lat="46.84367" lon="-1.04717">
        <ele>108</ele>
      </trkpt>
      <trkpt lat="46.84361" lon="-1.04733">
        <ele>108</ele>
      </trkpt>
      <trkpt lat="46.84357" lon="-1.04745">
        <ele>107.9</ele>
      </trkpt>
      <trkpt lat="46.84347" lon="-1.04763">
        <ele>107.3</ele>
      </trkpt>
      <trkpt lat="46.84323" lon="-1.04796">
        <ele>106.8</ele>
      </trkpt>
      <trkpt lat="46.84306" lon="-1.04818">
        <ele>106</ele>
      </trkpt>
      <trkpt lat="46.84286" lon="-1.04843">
        <ele>106</ele>
      </trkpt>
      <trkpt lat="46.84272" lon="-1.04853">
        <ele>105.9</ele>
      </trkpt>
      <trkpt lat="46.84252" lon="-1.04862">
        <ele>105.1</ele>
      </trkpt>
      <trkpt lat="46.8419" lon="-1.049">
        <ele>103.8</ele>
      </trkpt>
      <trkpt lat="46.84104" lon="-1.04956">
        <ele>100.6</ele>
      </trkpt>
      <trkpt lat="46.84026" lon="-1.05007">
        <ele>95.9</ele>
      </trkpt>
      <trkpt lat="46.83969" lon="-1.05036">
        <ele>93</ele>
      </trkpt>
      <trkpt lat="46.83943" lon="-1.05045">
        <ele>92.4</ele>
      </trkpt>
      <trkpt lat="46.83911" lon="-1.05052">
        <ele>92</ele>
      </trkpt>
      <trkpt lat="46.83874" lon="-1.05062">
        <ele>92.6</ele>
      </trkpt>
      <trkpt lat="46.83828" lon="-1.05073">
        <ele>94.1</ele>
      </trkpt>
      <trkpt lat="46.838" lon="-1.05084">
        <ele>94.4</ele>
      </trkpt>
      <trkpt lat="46.83775" lon="-1.05102">
        <ele>96</ele>
      </trkpt>
      <trkpt lat="46.8374" lon="-1.05125">
        <ele>96.7</ele>
      </trkpt>
      <trkpt lat="46.83715" lon="-1.05136">
        <ele>97.3</ele>
      </trkpt>
      <trkpt lat="46.83693" lon="-1.0514">
        <ele>98.1</ele>
      </trkpt>
      <trkpt lat="46.83666" lon="-1.05143">
        <ele>99.2</ele>
      </trkpt>
      <trkpt lat="46.8364" lon="-1.0515">
        <ele>100</ele>
      </trkpt>
      <trkpt lat="46.83587" lon="-1.05161">
        <ele>102.2</ele>
      </trkpt>
      <trkpt lat="46.83521" lon="-1.05175">
        <ele>104.6</ele>
      </trkpt>
      <trkpt lat="46.83464" lon="-1.05189">
        <ele>106.1</ele>
      </trkpt>
      <trkpt lat="46.83435" lon="-1.05199">
        <ele>106.4</ele>
      </trkpt>
      <trkpt lat="46.8339" lon="-1.05217">
        <ele>107</ele>
      </trkpt>
      <trkpt lat="46.83345" lon="-1.05235">
        <ele>107</ele>
      </trkpt>
      <trkpt lat="46.83319" lon="-1.05246">
        <ele>107</ele>
      </trkpt>
      <trkpt lat="46.83315" lon="-1.05249">
        <ele>105</ele>
        <time>2010-01-01T00:33:08Z</time>
      </trkpt>
      <trkpt lat="46.83288" lon="-1.05117">
        <ele>104</ele>
        <time>2010-01-01T00:33:24Z</time>
      </trkpt>
      <trkpt lat="46.83234" lon="-1.05137">
        <ele>104</ele>
        <time>2010-01-01T00:33:33Z</time>
      </trkpt>
      <trkpt lat="46.83113" lon="-1.05172">
        <ele>101</ele>
        <time>2010-01-01T00:33:54Z</time>
      </trkpt>
      <trkpt lat="46.82988" lon="-1.05205">
        <ele>100</ele>
        <time>2010-01-01T00:34:15Z</time>
      </trkpt>
      <trkpt lat="46.82935" lon="-1.05211">
        <ele>100</ele>
        <time>2010-01-01T00:34:24Z</time>
      </trkpt>
      <trkpt lat="46.82888" lon="-1.05223">
        <ele>103</ele>
        <time>2010-01-01T00:34:32Z</time>
      </trkpt>
      <trkpt lat="46.82853" lon="-1.05241">
        <ele>105</ele>
        <time>2010-01-01T00:34:38Z</time>
      </trkpt>
      <trkpt lat="46.82585" lon="-1.05367">
        <ele>108</ele>
        <time>2010-01-01T00:35:25Z</time>
      </trkpt>
      <trkpt lat="46.82102" lon="-1.05592">
        <ele>113</ele>
        <time>2010-01-01T00:36:50Z</time>
      </trkpt>
      <trkpt lat="46.82039" lon="-1.05625">
        <ele>113</ele>
        <time>2010-01-01T00:37:01Z</time>
      </trkpt>
      <trkpt lat="46.81923" lon="-1.05676">
        <ele>106</ele>
        <time>2010-01-01T00:37:21Z</time>
      </trkpt>
      <trkpt lat="46.81876" lon="-1.0568">
        <ele>105</ele>
        <time>2010-01-01T00:37:29Z</time>
      </trkpt>
      <trkpt lat="46.81645" lon="-1.05652">
        <ele>104</ele>
        <time>2010-01-01T00:38:08Z</time>
      </trkpt>
      <trkpt lat="46.81562" lon="-1.05631">
        <ele>105</ele>
        <time>2010-01-01T00:38:22Z</time>
      </trkpt>
      <trkpt lat="46.81504" lon="-1.05612">
        <ele>105</ele>
        <time>2010-01-01T00:38:32Z</time>
      </trkpt>
      <trkpt lat="46.81284" lon="-1.05519">
        <ele>104</ele>
        <time>2010-01-01T00:39:10Z</time>
      </trkpt>
      <trkpt lat="46.81234" lon="-1.05501">
        <ele>104</ele>
        <time>2010-01-01T00:39:18Z</time>
      </trkpt>
      <trkpt lat="46.81145" lon="-1.05477">
        <ele>104</ele>
        <time>2010-01-01T00:39:33Z</time>
      </trkpt>
      <trkpt lat="46.81049" lon="-1.05457">
        <ele>102</ele>
        <time>2010-01-01T00:39:50Z</time>
      </trkpt>
      <trkpt lat="46.81007" lon="-1.05459">
        <ele>101</ele>
        <time>2010-01-01T00:39:57Z</time>
      </trkpt>
      <trkpt lat="46.80966" lon="-1.05438">
        <ele>99</ele>
        <time>2010-01-01T00:40:04Z</time>
      </trkpt>
      <trkpt lat="46.80927" lon="-1.05424">
        <ele>98</ele>
        <time>2010-01-01T00:40:11Z</time>
      </trkpt>
      <trkpt lat="46.80883" lon="-1.05433">
        <ele>96</ele>
        <time>2010-01-01T00:40:18Z</time>
      </trkpt>
      <trkpt lat="46.80841" lon="-1.0546">
        <ele>95</ele>
        <time>2010-01-01T00:40:26Z</time>
      </trkpt>
      <trkpt lat="46.80742" lon="-1.05581">
        <ele>93</ele>
        <time>2010-01-01T00:40:47Z</time>
      </trkpt>
      <trkpt lat="46.80695" lon="-1.05634">
        <ele>92</ele>
        <time>2010-01-01T00:40:57Z</time>
      </trkpt>
      <trkpt lat="46.80589" lon="-1.05729">
        <ele>93</ele>
        <time>2010-01-01T00:41:18Z</time>
      </trkpt>
      <trkpt lat="46.80548" lon="-1.05792">
        <ele>94</ele>
        <time>2010-01-01T00:41:28Z</time>
      </trkpt>
      <trkpt lat="46.80505" lon="-1.05841">
        <ele>93</ele>
        <time>2010-01-01T00:41:37Z</time>
      </trkpt>
      <trkpt lat="46.80452" lon="-1.05873">
        <ele>92</ele>
        <time>2010-01-01T00:41:46Z</time>
      </trkpt>
      <trkpt lat="46.80362" lon="-1.05897">
        <ele>91</ele>
        <time>2010-01-01T00:42:02Z</time>
      </trkpt>
      <trkpt lat="46.80294" lon="-1.05943">
        <ele>91</ele>
        <time>2010-01-01T00:42:14Z</time>
      </trkpt>
      <trkpt lat="46.80264" lon="-1.05947">
        <ele>91</ele>
        <time>2010-01-01T00:42:19Z</time>
      </trkpt>
      <trkpt lat="46.80128" lon="-1.05908">
        <ele>93</ele>
        <time>2010-01-01T00:42:42Z</time>
      </trkpt>
      <trkpt lat="46.80096" lon="-1.05906">
        <ele>93</ele>
        <time>2010-01-01T00:42:48Z</time>
      </trkpt>
      <trkpt lat="46.80054" lon="-1.05921">
        <ele>93</ele>
        <time>2010-01-01T00:42:55Z</time>
      </trkpt>
      <trkpt lat="46.79899" lon="-1.06141">
        <ele>90</ele>
        <time>2010-01-01T00:43:31Z</time>
      </trkpt>
      <trkpt lat="46.79865" lon="-1.06168">
        <ele>91</ele>
        <time>2010-01-01T00:43:37Z</time>
      </trkpt>
      <trkpt lat="46.79819" lon="-1.06184">
        <ele>92</ele>
        <time>2010-01-01T00:43:45Z</time>
      </trkpt>
      <trkpt lat="46.79744" lon="-1.06194">
        <ele>93</ele>
        <time>2010-01-01T00:43:58Z</time>
      </trkpt>
      <trkpt lat="46.79743" lon="-1.06194">
        <ele>93</ele>
        <time>2010-01-01T00:43:58Z</time>
      </trkpt>
      <trkpt lat="46.79621" lon="-1.06254">
        <ele>90</ele>
        <time>2010-01-01T00:44:19Z</time>
      </trkpt>
      <trkpt lat="46.79511" lon="-1.06311">
        <ele>88</ele>
        <time>2010-01-01T00:44:39Z</time>
      </trkpt>
      <trkpt lat="46.79475" lon="-1.06317">
        <ele>89</ele>
        <time>2010-01-01T00:44:45Z</time>
      </trkpt>
      <trkpt lat="46.79414" lon="-1.06308">
        <ele>91</ele>
        <time>2010-01-01T00:44:55Z</time>
      </trkpt>
      <trkpt lat="46.7919" lon="-1.06265">
        <ele>91</ele>
        <time>2010-01-01T00:45:33Z</time>
      </trkpt>
      <trkpt lat="46.78881" lon="-1.06106">
        <ele>103</ele>
        <time>2010-01-01T00:46:27Z</time>
      </trkpt>
      <trkpt lat="46.78844" lon="-1.061">
        <ele>106</ele>
        <time>2010-01-01T00:46:34Z</time>
      </trkpt>
      <trkpt lat="46.78808" lon="-1.061">
        <ele>107</ele>
        <time>2010-01-01T00:46:40Z</time>
      </trkpt>
      <trkpt lat="46.78708" lon="-1.06164">
        <ele>109</ele>
        <time>2010-01-01T00:46:58Z</time>
      </trkpt>
      <trkpt lat="46.78678" lon="-1.0616">
        <ele>109</ele>
        <time>2010-01-01T00:47:03Z</time>
      </trkpt>
      <trkpt lat="46.7833" lon="-1.06034">
        <ele>99</ele>
        <time>2010-01-01T00:48:03Z</time>
      </trkpt>
      <trkpt lat="46.78316" lon="-1.06049">
        <ele>99</ele>
        <time>2010-01-01T00:48:06Z</time>
      </trkpt>
      <trkpt lat="46.78155" lon="-1.06181">
        <ele>99</ele>
        <time>2010-01-01T00:48:36Z</time>
      </trkpt>
      <trkpt lat="46.78094" lon="-1.06204">
        <ele>96.7</ele>
        <time>2010-01-01T00:48:47Z</time>
      </trkpt>
      <trkpt lat="46.78067" lon="-1.06221">
        <ele>95.8</ele>
      </trkpt>
      <trkpt lat="46.78045" lon="-1.06238">
        <ele>95.2</ele>
        <time>2010-01-01T00:49:00Z</time>
      </trkpt>
      <trkpt lat="46.78038" lon="-1.06239">
        <ele>95</ele>
      </trkpt>
      <trkpt lat="46.78037" lon="-1.06206">
        <ele>93.3</ele>
      </trkpt>
      <trkpt lat="46.78046" lon="-1.06125">
        <ele>88</ele>
      </trkpt>
      <trkpt lat="46.78052" lon="-1.06099">
        <ele>88.4</ele>
      </trkpt>
      <trkpt lat="46.78063" lon="-1.0607">
        <ele>88.8</ele>
      </trkpt>
      <trkpt lat="46.78081" lon="-1.06052">
        <ele>87.5</ele>
      </trkpt>
      <trkpt lat="46.78094" lon="-1.06035">
        <ele>86.1</ele>
      </trkpt>
      <trkpt lat="46.78098" lon="-1.0601">
        <ele>84.8</ele>
      </trkpt>
      <trkpt lat="46.78097" lon="-1.05988">
        <ele>83.1</ele>
      </trkpt>
      <trkpt lat="46.78096" lon="-1.0596">
        <ele>80.8</ele>
      </trkpt>
      <trkpt lat="46.781" lon="-1.05935">
        <ele>80.2</ele>
      </trkpt>
      <trkpt lat="46.78108" lon="-1.05912">
        <ele>79.3</ele>
      </trkpt>
      <trkpt lat="46.78121" lon="-1.05905">
        <ele>79.6</ele>
      </trkpt>
      <trkpt lat="46.78145" lon="-1.05898">
        <ele>80.2</ele>
      </trkpt>
      <trkpt lat="46.78159" lon="-1.05894">
        <ele>79.9</ele>
      </trkpt>
      <trkpt lat="46.78165" lon="-1.05874">
        <ele>78.3</ele>
      </trkpt>
      <trkpt lat="46.78164" lon="-1.05857">
        <ele>78.4</ele>
      </trkpt>
      <trkpt lat="46.78153" lon="-1.05843">
        <ele>79.1</ele>
      </trkpt>
      <trkpt lat="46.78133" lon="-1.05839">
        <ele>76.5</ele>
      </trkpt>
      <trkpt lat="46.78106" lon="-1.05833">
        <ele>74.5</ele>
      </trkpt>
      <trkpt lat="46.78083" lon="-1.05823">
        <ele>73.5</ele>
      </trkpt>
      <trkpt lat="46.78075" lon="-1.05809">
        <ele>72.5</ele>
      </trkpt>
      <trkpt lat="46.78063" lon="-1.05764">
        <ele>72.4</ele>
      </trkpt>
      <trkpt lat="46.78046" lon="-1.05724">
        <ele>70.7</ele>
      </trkpt>
      <trkpt lat="46.78032" lon="-1.05691">
        <ele>69.9</ele>
      </trkpt>
      <trkpt lat="46.78013" lon="-1.05642">
        <ele>69.9</ele>
      </trkpt>
      <trkpt lat="46.78" lon="-1.0561">
        <ele>70</ele>
      </trkpt>
      <trkpt lat="46.77992" lon="-1.0556">
        <ele>70.1</ele>
      </trkpt>
      <trkpt lat="46.77984" lon="-1.05514">
        <ele>71.8</ele>
      </trkpt>
      <trkpt lat="46.77976" lon="-1.05467">
        <ele>70.4</ele>
      </trkpt>
      <trkpt lat="46.77963" lon="-1.05432">
        <ele>67.5</ele>
      </trkpt>
      <trkpt lat="46.77947" lon="-1.05394">
        <ele>66.9</ele>
      </trkpt>
      <trkpt lat="46.77931" lon="-1.05343">
        <ele>67.2</ele>
      </trkpt>
      <trkpt lat="46.77912" lon="-1.05271">
        <ele>67.8</ele>
      </trkpt>
      <trkpt lat="46.77901" lon="-1.05223">
        <ele>67.7</ele>
      </trkpt>
      <trkpt lat="46.77896" lon="-1.05196">
        <ele>67.3</ele>
      </trkpt>
      <trkpt lat="46.77902" lon="-1.05173">
        <ele>65.6</ele>
      </trkpt>
      <trkpt lat="46.77929" lon="-1.05147">
        <ele>65.1</ele>
      </trkpt>
      <trkpt lat="46.77959" lon="-1.0512">
        <ele>64.8</ele>
      </trkpt>
      <trkpt lat="46.77978" lon="-1.05081">
        <ele>64.2</ele>
      </trkpt>
      <trkpt lat="46.77991" lon="-1.05039">
        <ele>65.3</ele>
      </trkpt>
      <trkpt lat="46.78" lon="-1.04994">
        <ele>64</ele>
      </trkpt>
      <trkpt lat="46.78006" lon="-1.04966">
        <ele>65.6</ele>
      </trkpt>
      <trkpt lat="46.78011" lon="-1.04904">
        <ele>66.1</ele>
      </trkpt>
      <trkpt lat="46.78014" lon="-1.04851">
        <ele>67</ele>
      </trkpt>
      <trkpt lat="46.78015" lon="-1.04796">
        <ele>67.1</ele>
      </trkpt>
      <trkpt lat="46.78016" lon="-1.04735">
        <ele>68.1</ele>
      </trkpt>
      <trkpt lat="46.78019" lon="-1.04664">
        <ele>70.2</ele>
      </trkpt>
      <trkpt lat="46.78028" lon="-1.04588">
        <ele>72.3</ele>
      </trkpt>
      <trkpt lat="46.78042" lon="-1.04499">
        <ele>70.5</ele>
      </trkpt>
      <trkpt lat="46.78054" lon="-1.04438">
        <ele>69.3</ele>
      </trkpt>
      <trkpt lat="46.78078" lon="-1.04371">
        <ele>69.7</ele>
      </trkpt>
      <trkpt lat="46.781" lon="-1.04309">
        <ele>68.8</ele>
      </trkpt>
      <trkpt lat="46.78134" lon="-1.04218">
        <ele>68.2</ele>
      </trkpt>
      <trkpt lat="46.78186" lon="-1.04082">
        <ele>69</ele>
      </trkpt>
      <trkpt lat="46.78227" lon="-1.03974">
        <ele>67.7</ele>
      </trkpt>
      <trkpt lat="46.78268" lon="-1.03869">
        <ele>67.8</ele>
      </trkpt>
      <trkpt lat="46.78283" lon="-1.03835">
        <ele>68.3</ele>
      </trkpt>
      <trkpt lat="46.7831" lon="-1.03787">
        <ele>66.3</ele>
      </trkpt>
      <trkpt lat="46.78323" lon="-1.03754">
        <ele>66</ele>
      </trkpt>
      <trkpt lat="46.78329" lon="-1.03728">
        <ele>66.7</ele>
      </trkpt>
      <trkpt lat="46.78335" lon="-1.03687">
        <ele>67.4</ele>
      </trkpt>
      <trkpt lat="46.78339" lon="-1.03657">
        <ele>67.9</ele>
      </trkpt>
      <trkpt lat="46.78352" lon="-1.03627">
        <ele>68.6</ele>
      </trkpt>
      <trkpt lat="46.78373" lon="-1.03584">
        <ele>68.9</ele>
      </trkpt>
      <trkpt lat="46.78383" lon="-1.03545">
        <ele>70</ele>
      </trkpt>
      <trkpt lat="46.78387" lon="-1.03506">
        <ele>69.7</ele>
      </trkpt>
      <trkpt lat="46.78388" lon="-1.03471">
        <ele>69.8</ele>
      </trkpt>
      <trkpt lat="46.78387" lon="-1.03424">
        <ele>69</ele>
      </trkpt>
      <trkpt lat="46.78384" lon="-1.03378">
        <ele>69.7</ele>
      </trkpt>
      <trkpt lat="46.78381" lon="-1.03321">
        <ele>69.6</ele>
      </trkpt>
      <trkpt lat="46.78371" lon="-1.03248">
        <ele>69</ele>
      </trkpt>
      <trkpt lat="46.78363" lon="-1.03195">
        <ele>68.5</ele>
      </trkpt>
      <trkpt lat="46.7835" lon="-1.03141">
        <ele>68.8</ele>
      </trkpt>
      <trkpt lat="46.78331" lon="-1.03059">
        <ele>68.6</ele>
      </trkpt>
      <trkpt lat="46.78323" lon="-1.03018">
        <ele>69.7</ele>
      </trkpt>
      <trkpt lat="46.78312" lon="-1.02976">
        <ele>69.1</ele>
      </trkpt>
      <trkpt lat="46.78303" lon="-1.02942">
        <ele>68.9</ele>
      </trkpt>
      <trkpt lat="46.78302" lon="-1.02902">
        <ele>70.1</ele>
      </trkpt>
      <trkpt lat="46.78307" lon="-1.02845">
        <ele>70.4</ele>
      </trkpt>
      <trkpt lat="46.78314" lon="-1.02793">
        <ele>71.4</ele>
      </trkpt>
      <trkpt lat="46.78325" lon="-1.02737">
        <ele>71.8</ele>
      </trkpt>
      <trkpt lat="46.78339" lon="-1.02676">
        <ele>68.7</ele>
      </trkpt>
      <trkpt lat="46.78355" lon="-1.02611">
        <ele>68.8</ele>
      </trkpt>
      <trkpt lat="46.78371" lon="-1.02554">
        <ele>69.8</ele>
      </trkpt>
      <trkpt lat="46.78382" lon="-1.02517">
        <ele>70.9</ele>
      </trkpt>
      <trkpt lat="46.78389" lon="-1.0249">
        <ele>70</ele>
      </trkpt>
      <trkpt lat="46.78394" lon="-1.02446">
        <ele>70.6</ele>
      </trkpt>
      <trkpt lat="46.78398" lon="-1.02365">
        <ele>72.1</ele>
      </trkpt>
      <trkpt lat="46.78397" lon="-1.02326">
        <ele>72.1</ele>
      </trkpt>
      <trkpt lat="46.78394" lon="-1.02298">
        <ele>72.4</ele>
      </trkpt>
      <trkpt lat="46.78386" lon="-1.02262">
        <ele>71.4</ele>
      </trkpt>
      <trkpt lat="46.78377" lon="-1.02231">
        <ele>71.5</ele>
      </trkpt>
      <trkpt lat="46.78374" lon="-1.02201">
        <ele>72.1</ele>
      </trkpt>
      <trkpt lat="46.78375" lon="-1.02167">
        <ele>72.4</ele>
      </trkpt>
      <trkpt lat="46.78383" lon="-1.02077">
        <ele>74.4</ele>
      </trkpt>
      <trkpt lat="46.78393" lon="-1.01998">
        <ele>74.1</ele>
      </trkpt>
      <trkpt lat="46.78396" lon="-1.01959">
        <ele>74.5</ele>
      </trkpt>
      <trkpt lat="46.78396" lon="-1.01901">
        <ele>74.5</ele>
      </trkpt>
      <trkpt lat="46.78396" lon="-1.01842">
        <ele>76.3</ele>
      </trkpt>
      <trkpt lat="46.78403" lon="-1.01786">
        <ele>77.2</ele>
      </trkpt>
      <trkpt lat="46.78411" lon="-1.01724">
        <ele>77.9</ele>
      </trkpt>
      <trkpt lat="46.78415" lon="-1.01651">
        <ele>77.7</ele>
      </trkpt>
      <trkpt lat="46.78419" lon="-1.01587">
        <ele>77.8</ele>
      </trkpt>
      <trkpt lat="46.78423" lon="-1.01513">
        <ele>77.9</ele>
      </trkpt>
      <trkpt lat="46.78427" lon="-1.01444">
        <ele>76.5</ele>
      </trkpt>
      <trkpt lat="46.78433" lon="-1.01364">
        <ele>78.2</ele>
      </trkpt>
      <trkpt lat="46.78433" lon="-1.01294">
        <ele>79.3</ele>
      </trkpt>
      <trkpt lat="46.78434" lon="-1.01221">
        <ele>80.2</ele>
      </trkpt>
      <trkpt lat="46.78434" lon="-1.01163">
        <ele>80.6</ele>
      </trkpt>
      <trkpt lat="46.78436" lon="-1.01142">
        <ele>81.4</ele>
      </trkpt>
      <trkpt lat="46.78443" lon="-1.01113">
        <ele>83.5</ele>
      </trkpt>
      <trkpt lat="46.78455" lon="-1.01088">
        <ele>85.9</ele>
      </trkpt>
      <trkpt lat="46.78494" lon="-1.01042">
        <ele>91</ele>
      </trkpt>
      <trkpt lat="46.78533" lon="-1.00996">
        <ele>93.2</ele>
      </trkpt>
      <trkpt lat="46.78562" lon="-1.00951">
        <ele>94</ele>
      </trkpt>
      <trkpt lat="46.78586" lon="-1.00896">
        <ele>94.5</ele>
      </trkpt>
      <trkpt lat="46.78602" lon="-1.00853">
        <ele>95.2</ele>
      </trkpt>
      <trkpt lat="46.78631" lon="-1.00796">
        <ele>95.3</ele>
      </trkpt>
      <trkpt lat="46.78646" lon="-1.00752">
        <ele>96.8</ele>
      </trkpt>
      <trkpt lat="46.78661" lon="-1.00708">
        <ele>97</ele>
      </trkpt>
      <trkpt lat="46.7868" lon="-1.00677">
        <ele>96.5</ele>
      </trkpt>
      <trkpt lat="46.78705" lon="-1.00647">
        <ele>98.2</ele>
      </trkpt>
      <trkpt lat="46.78726" lon="-1.00619">
        <ele>99</ele>
      </trkpt>
      <trkpt lat="46.78745" lon="-1.00583">
        <ele>99</ele>
      </trkpt>
      <trkpt lat="46.78773" lon="-1.00525">
        <ele>99.7</ele>
      </trkpt>
      <trkpt lat="46.78814" lon="-1.00448">
        <ele>98.7</ele>
      </trkpt>
      <trkpt lat="46.78847" lon="-1.00396">
        <ele>98</ele>
      </trkpt>
      <trkpt lat="46.78869" lon="-1.00353">
        <ele>96.5</ele>
      </trkpt>
      <trkpt lat="46.7888" lon="-1.00307">
        <ele>96</ele>
      </trkpt>
      <trkpt lat="46.78893" lon="-1.00246">
        <ele>94.8</ele>
      </trkpt>
      <trkpt lat="46.78909" lon="-1.00151">
        <ele>95</ele>
      </trkpt>
      <trkpt lat="46.78919" lon="-1.00074">
        <ele>97.3</ele>
      </trkpt>
      <trkpt lat="46.7893" lon="-0.99968">
        <ele>99.1</ele>
      </trkpt>
      <trkpt lat="46.7894" lon="-0.99861">
        <ele>100.8</ele>
      </trkpt>
      <trkpt lat="46.78944" lon="-0.99809">
        <ele>101</ele>
      </trkpt>
      <trkpt lat="46.78942" lon="-0.99777">
        <ele>100</ele>
      </trkpt>
      <trkpt lat="46.7893" lon="-0.99736">
        <ele>101</ele>
      </trkpt>
      <trkpt lat="46.78913" lon="-0.99678">
        <ele>101</ele>
      </trkpt>
      <trkpt lat="46.78905" lon="-0.99658">
        <ele>101.1</ele>
      </trkpt>
      <trkpt lat="46.78905" lon="-0.99609">
        <ele>100.6</ele>
      </trkpt>
      <trkpt lat="46.78916" lon="-0.99582">
        <ele>101</ele>
      </trkpt>
      <trkpt lat="46.78939" lon="-0.99542">
        <ele>101.7</ele>
      </trkpt>
      <trkpt lat="46.78952" lon="-0.99512">
        <ele>101.9</ele>
      </trkpt>
      <trkpt lat="46.78961" lon="-0.99472">
        <ele>102.2</ele>
      </trkpt>
      <trkpt lat="46.78961" lon="-0.99454">
        <ele>101.8</ele>
      </trkpt>
      <trkpt lat="46.78956" lon="-0.99425">
        <ele>101.4</ele>
      </trkpt>
      <trkpt lat="46.78945" lon="-0.99368">
        <ele>100</ele>
      </trkpt>
      <trkpt lat="46.78938" lon="-0.99325">
        <ele>98.7</ele>
      </trkpt>
      <trkpt lat="46.78937" lon="-0.99286">
        <ele>98.4</ele>
      </trkpt>
      <trkpt lat="46.78941" lon="-0.99225">
        <ele>97.8</ele>
      </trkpt>
      <trkpt lat="46.7895" lon="-0.99181">
        <ele>98.2</ele>
      </trkpt>
      <trkpt lat="46.78964" lon="-0.99125">
        <ele>98.9</ele>
      </trkpt>
      <trkpt lat="46.78973" lon="-0.99079">
        <ele>100.2</ele>
      </trkpt>
      <trkpt lat="46.78976" lon="-0.99039">
        <ele>101.6</ele>
      </trkpt>
      <trkpt lat="46.78978" lon="-0.98955">
        <ele>103</ele>
      </trkpt>
      <trkpt lat="46.7898" lon="-0.98892">
        <ele>104</ele>
      </trkpt>
      <trkpt lat="46.78981" lon="-0.98838">
        <ele>104.8</ele>
      </trkpt>
      <trkpt lat="46.78976" lon="-0.9877">
        <ele>106</ele>
      </trkpt>
      <trkpt lat="46.78967" lon="-0.98687">
        <ele>106</ele>
      </trkpt>
      <trkpt lat="46.7895" lon="-0.98584">
        <ele>105.2</ele>
      </trkpt>
      <trkpt lat="46.78923" lon="-0.98405">
        <ele>103.6</ele>
      </trkpt>
      <trkpt lat="46.78914" lon="-0.98338">
        <ele>103.9</ele>
      </trkpt>
      <trkpt lat="46.78912" lon="-0.98292">
        <ele>103.8</ele>
      </trkpt>
      <trkpt lat="46.78912" lon="-0.98255">
        <ele>103</ele>
      </trkpt>
      <trkpt lat="46.78921" lon="-0.98189">
        <ele>102.9</ele>
      </trkpt>
      <trkpt lat="46.78932" lon="-0.98128">
        <ele>102.5</ele>
      </trkpt>
      <trkpt lat="46.7895" lon="-0.98052">
        <ele>104.2</ele>
      </trkpt>
      <trkpt lat="46.78995" lon="-0.97901">
        <ele>106.8</ele>
      </trkpt>
      <trkpt lat="46.79038" lon="-0.97773">
        <ele>108.4</ele>
      </trkpt>
      <trkpt lat="46.79077" lon="-0.97661">
        <ele>108.8</ele>
      </trkpt>
      <trkpt lat="46.79105" lon="-0.97568">
        <ele>109.5</ele>
      </trkpt>
      <trkpt lat="46.79131" lon="-0.97472">
        <ele>108.7</ele>
      </trkpt>
      <trkpt lat="46.79146" lon="-0.97414">
        <ele>107.9</ele>
      </trkpt>
      <trkpt lat="46.79156" lon="-0.97361">
        <ele>107.6</ele>
      </trkpt>
      <trkpt lat="46.79162" lon="-0.97324">
        <ele>107.8</ele>
      </trkpt>
      <trkpt lat="46.79164" lon="-0.97296">
        <ele>107.5</ele>
      </trkpt>
      <trkpt lat="46.79161" lon="-0.97248">
        <ele>106.8</ele>
      </trkpt>
      <trkpt lat="46.79159" lon="-0.97158">
        <ele>106.7</ele>
      </trkpt>
      <trkpt lat="46.79155" lon="-0.97063">
        <ele>106.6</ele>
      </trkpt>
      <trkpt lat="46.79158" lon="-0.96978">
        <ele>107.7</ele>
      </trkpt>
      <trkpt lat="46.79164" lon="-0.96908">
        <ele>108.9</ele>
      </trkpt>
      <trkpt lat="46.79171" lon="-0.96831">
        <ele>109.1</ele>
      </trkpt>
      <trkpt lat="46.7917" lon="-0.96792">
        <ele>109.6</ele>
      </trkpt>
      <trkpt lat="46.79164" lon="-0.96752">
        <ele>109.9</ele>
      </trkpt>
      <trkpt lat="46.79154" lon="-0.96705">
        <ele>110.8</ele>
      </trkpt>
      <trkpt lat="46.79148" lon="-0.96672">
        <ele>111.3</ele>
      </trkpt>
      <trkpt lat="46.79146" lon="-0.96644">
        <ele>111.9</ele>
      </trkpt>
      <trkpt lat="46.79147" lon="-0.96614">
        <ele>112</ele>
      </trkpt>
      <trkpt lat="46.79151" lon="-0.96565">
        <ele>112.8</ele>
      </trkpt>
      <trkpt lat="46.79159" lon="-0.96515">
        <ele>113</ele>
      </trkpt>
      <trkpt lat="46.79171" lon="-0.96423">
        <ele>114</ele>
      </trkpt>
      <trkpt lat="46.79187" lon="-0.96312">
        <ele>114</ele>
      </trkpt>
      <trkpt lat="46.79197" lon="-0.96229">
        <ele>114.7</ele>
      </trkpt>
      <trkpt lat="46.79205" lon="-0.96147">
        <ele>114</ele>
      </trkpt>
      <trkpt lat="46.7921" lon="-0.96057">
        <ele>113.4</ele>
      </trkpt>
      <trkpt lat="46.79216" lon="-0.95982">
        <ele>111.8</ele>
      </trkpt>
      <trkpt lat="46.79218" lon="-0.95928">
        <ele>110.6</ele>
      </trkpt>
      <trkpt lat="46.79219" lon="-0.9589">
        <ele>109.3</ele>
      </trkpt>
      <trkpt lat="46.79213" lon="-0.95782">
        <ele>107.4</ele>
      </trkpt>
      <trkpt lat="46.79208" lon="-0.95691">
        <ele>106.5</ele>
      </trkpt>
      <trkpt lat="46.79206" lon="-0.95648">
        <ele>106.6</ele>
      </trkpt>
      <trkpt lat="46.79208" lon="-0.95557">
        <ele>107</ele>
      </trkpt>
      <trkpt lat="46.79215" lon="-0.9551">
        <ele>107</ele>
      </trkpt>
      <trkpt lat="46.79236" lon="-0.95433">
        <ele>108.6</ele>
      </trkpt>
      <trkpt lat="46.79264" lon="-0.95333">
        <ele>110</ele>
      </trkpt>
      <trkpt lat="46.79287" lon="-0.95239">
        <ele>111.4</ele>
      </trkpt>
      <trkpt lat="46.79301" lon="-0.9517">
        <ele>112.1</ele>
      </trkpt>
      <trkpt lat="46.79307" lon="-0.95025">
        <ele>115.1</ele>
      </trkpt>
      <trkpt lat="46.79315" lon="-0.94923">
        <ele>117.5</ele>
      </trkpt>
      <trkpt lat="46.79322" lon="-0.94867">
        <ele>118.3</ele>
      </trkpt>
      <trkpt lat="46.79341" lon="-0.94766">
        <ele>119.3</ele>
      </trkpt>
      <trkpt lat="46.7935" lon="-0.94685">
        <ele>120.4</ele>
      </trkpt>
      <trkpt lat="46.79351" lon="-0.94632">
        <ele>120.6</ele>
      </trkpt>
      <trkpt lat="46.79344" lon="-0.94509">
        <ele>122.7</ele>
      </trkpt>
      <trkpt lat="46.79336" lon="-0.94392">
        <ele>124</ele>
      </trkpt>
      <trkpt lat="46.7933" lon="-0.94268">
        <ele>125</ele>
      </trkpt>
      <trkpt lat="46.79328" lon="-0.94201">
        <ele>126</ele>
      </trkpt>
      <trkpt lat="46.79332" lon="-0.94147">
        <ele>126.7</ele>
      </trkpt>
      <trkpt lat="46.79343" lon="-0.94099">
        <ele>127.4</ele>
      </trkpt>
      <trkpt lat="46.7936" lon="-0.94051">
        <ele>129</ele>
      </trkpt>
      <trkpt lat="46.79387" lon="-0.93994">
        <ele>130.2</ele>
      </trkpt>
      <trkpt lat="46.79408" lon="-0.93949">
        <ele>131.6</ele>
      </trkpt>
      <trkpt lat="46.79426" lon="-0.93898">
        <ele>132.8</ele>
      </trkpt>
      <trkpt lat="46.79435" lon="-0.93836">
        <ele>133.3</ele>
      </trkpt>
      <trkpt lat="46.79436" lon="-0.93772">
        <ele>133.8</ele>
      </trkpt>
      <trkpt lat="46.79426" lon="-0.93725">
        <ele>134.6</ele>
      </trkpt>
      <trkpt lat="46.79422" lon="-0.93704">
        <ele>135.6</ele>
      </trkpt>
      <trkpt lat="46.79414" lon="-0.93687">
        <ele>136</ele>
      </trkpt>
      <trkpt lat="46.7941" lon="-0.9368">
        <ele>136</ele>
      </trkpt>
      <trkpt lat="46.79411" lon="-0.93668">
        <ele>136</ele>
      </trkpt>
      <trkpt lat="46.7941" lon="-0.9363">
        <ele>136.3</ele>
      </trkpt>
      <trkpt lat="46.79403" lon="-0.93577">
        <ele>137</ele>
      </trkpt>
      <trkpt lat="46.79399" lon="-0.93549">
        <ele>137.3</ele>
      </trkpt>
      <trkpt lat="46.79399" lon="-0.93503">
        <ele>138</ele>
      </trkpt>
      <trkpt lat="46.79404" lon="-0.93452">
        <ele>138.4</ele>
      </trkpt>
      <trkpt lat="46.79418" lon="-0.93377">
        <ele>139</ele>
      </trkpt>
      <trkpt lat="46.79437" lon="-0.93288">
        <ele>138.8</ele>
      </trkpt>
      <trkpt lat="46.79451" lon="-0.93214">
        <ele>137.9</ele>
      </trkpt>
      <trkpt lat="46.79462" lon="-0.93161">
        <ele>136.6</ele>
      </trkpt>
      <trkpt lat="46.79464" lon="-0.93127">
        <ele>136.3</ele>
      </trkpt>
      <trkpt lat="46.79456" lon="-0.93067">
        <ele>134.3</ele>
      </trkpt>
      <trkpt lat="46.7945" lon="-0.93027">
        <ele>133</ele>
      </trkpt>
      <trkpt lat="46.79433" lon="-0.92997">
        <ele>132</ele>
      </trkpt>
      <trkpt lat="46.79397" lon="-0.92955">
        <ele>129.7</ele>
      </trkpt>
      <trkpt lat="46.79386" lon="-0.92934">
        <ele>128.5</ele>
      </trkpt>
      <trkpt lat="46.79388" lon="-0.92904">
        <ele>127.5</ele>
      </trkpt>
      <trkpt lat="46.79392" lon="-0.92853">
        <ele>126.2</ele>
      </trkpt>
      <trkpt lat="46.79395" lon="-0.92807">
        <ele>125.5</ele>
      </trkpt>
      <trkpt lat="46.79395" lon="-0.92754">
        <ele>125.4</ele>
      </trkpt>
      <trkpt lat="46.79393" lon="-0.92706">
        <ele>124.4</ele>
      </trkpt>
      <trkpt lat="46.79394" lon="-0.92692">
        <ele>128</ele>
        <time>2010-01-01T01:23:33Z</time>
      </trkpt>
      <trkpt lat="46.79407" lon="-0.92651">
        <ele>128</ele>
        <time>2010-01-01T01:23:39Z</time>
      </trkpt>
      <trkpt lat="46.79421" lon="-0.92615">
        <ele>128</ele>
        <time>2010-01-01T01:23:43Z</time>
      </trkpt>
      <trkpt lat="46.79429" lon="-0.92605">
        <ele>128</ele>
        <time>2010-01-01T01:23:45Z</time>
      </trkpt>
      <trkpt lat="46.79438" lon="-0.92582">
        <ele>128</ele>
        <time>2010-01-01T01:23:48Z</time>
      </trkpt>
      <trkpt lat="46.79486" lon="-0.92602">
        <ele>132</ele>
        <time>2010-01-01T01:23:56Z</time>
      </trkpt>
      <trkpt lat="46.79512" lon="-0.92619">
        <ele>134</ele>
        <time>2010-01-01T01:24:01Z</time>
      </trkpt>
      <trkpt lat="46.79551" lon="-0.92635">
        <ele>135</ele>
        <time>2010-01-01T01:24:08Z</time>
      </trkpt>
      <trkpt lat="46.7958" lon="-0.92643">
        <ele>136</ele>
        <time>2010-01-01T01:24:13Z</time>
      </trkpt>
      <trkpt lat="46.79601" lon="-0.92646">
        <ele>137</ele>
        <time>2010-01-01T01:24:16Z</time>
      </trkpt>
      <trkpt lat="46.79644" lon="-0.92635">
        <ele>138</ele>
        <time>2010-01-01T01:24:24Z</time>
      </trkpt>
      <trkpt lat="46.79661" lon="-0.92633">
        <ele>138</ele>
        <time>2010-01-01T01:24:26Z</time>
      </trkpt>
      <trkpt lat="46.79676" lon="-0.92635">
        <ele>138</ele>
        <time>2010-01-01T01:24:29Z</time>
      </trkpt>
      <trkpt lat="46.79712" lon="-0.92647">
        <ele>139</ele>
        <time>2010-01-01T01:24:35Z</time>
      </trkpt>
      <trkpt lat="46.79731" lon="-0.92649">
        <ele>140</ele>
        <time>2010-01-01T01:24:38Z</time>
      </trkpt>
      <trkpt lat="46.79762" lon="-0.92648">
        <ele>141</ele>
        <time>2010-01-01T01:24:44Z</time>
      </trkpt>
      <trkpt lat="46.79803" lon="-0.9267">
        <ele>142</ele>
        <time>2010-01-01T01:24:51Z</time>
      </trkpt>
      <trkpt lat="46.79976" lon="-0.92751">
        <ele>140</ele>
        <time>2010-01-01T01:25:21Z</time>
      </trkpt>
      <trkpt lat="46.80017" lon="-0.92777">
        <ele>138</ele>
        <time>2010-01-01T01:25:29Z</time>
      </trkpt>
      <trkpt lat="46.80047" lon="-0.92781">
        <ele>138</ele>
        <time>2010-01-01T01:25:34Z</time>
      </trkpt>
      <trkpt lat="46.80086" lon="-0.92811">
        <ele>138</ele>
        <time>2010-01-01T01:25:41Z</time>
      </trkpt>
      <trkpt lat="46.80141" lon="-0.92866">
        <ele>138</ele>
        <time>2010-01-01T01:25:52Z</time>
      </trkpt>
      <trkpt lat="46.80189" lon="-0.92914">
        <ele>137</ele>
        <time>2010-01-01T01:26:02Z</time>
      </trkpt>
      <trkpt lat="46.80257" lon="-0.93009">
        <ele>137</ele>
        <time>2010-01-01T01:26:17Z</time>
      </trkpt>
      <trkpt lat="46.80303" lon="-0.93069">
        <ele>138</ele>
        <time>2010-01-01T01:26:28Z</time>
      </trkpt>
      <trkpt lat="46.80344" lon="-0.93114">
        <ele>138</ele>
        <time>2010-01-01T01:26:36Z</time>
      </trkpt>
      <trkpt lat="46.80376" lon="-0.9314">
        <ele>139</ele>
        <time>2010-01-01T01:26:42Z</time>
      </trkpt>
      <trkpt lat="46.80438" lon="-0.93214">
        <ele>139</ele>
        <time>2010-01-01T01:26:56Z</time>
      </trkpt>
      <trkpt lat="46.80459" lon="-0.93234">
        <ele>138</ele>
        <time>2010-01-01T01:27:00Z</time>
      </trkpt>
      <trkpt lat="46.80469" lon="-0.93239">
        <ele>138</ele>
        <time>2010-01-01T01:27:02Z</time>
      </trkpt>
      <trkpt lat="46.80541" lon="-0.93253">
        <ele>134</ele>
        <time>2010-01-01T01:27:14Z</time>
      </trkpt>
      <trkpt lat="46.80589" lon="-0.93251">
        <ele>132</ele>
        <time>2010-01-01T01:27:22Z</time>
      </trkpt>
      <trkpt lat="46.80641" lon="-0.93228">
        <ele>127</ele>
        <time>2010-01-01T01:27:31Z</time>
      </trkpt>
      <trkpt lat="46.80685" lon="-0.93204">
        <ele>124</ele>
        <time>2010-01-01T01:27:39Z</time>
      </trkpt>
      <trkpt lat="46.80721" lon="-0.93188">
        <ele>123</ele>
        <time>2010-01-01T01:27:45Z</time>
      </trkpt>
      <trkpt lat="46.80748" lon="-0.93189">
        <ele>122</ele>
        <time>2010-01-01T01:27:49Z</time>
      </trkpt>
      <trkpt lat="46.80886" lon="-0.9326">
        <ele>122</ele>
        <time>2010-01-01T01:28:14Z</time>
      </trkpt>
      <trkpt lat="46.80938" lon="-0.93273">
        <ele>125</ele>
        <time>2010-01-01T01:28:23Z</time>
      </trkpt>
      <trkpt lat="46.80989" lon="-0.93263">
        <ele>127</ele>
        <time>2010-01-01T01:28:31Z</time>
      </trkpt>
      <trkpt lat="46.81166" lon="-0.93221">
        <ele>132</ele>
        <time>2010-01-01T01:29:01Z</time>
      </trkpt>
      <trkpt lat="46.81251" lon="-0.93213">
        <ele>135</ele>
        <time>2010-01-01T01:29:15Z</time>
      </trkpt>
      <trkpt lat="46.81342" lon="-0.93213">
        <ele>136</ele>
        <time>2010-01-01T01:29:31Z</time>
      </trkpt>
      <trkpt lat="46.81463" lon="-0.932">
        <ele>137</ele>
        <time>2010-01-01T01:29:51Z</time>
      </trkpt>
      <trkpt lat="46.81515" lon="-0.93178">
        <ele>138</ele>
        <time>2010-01-01T01:30:00Z</time>
      </trkpt>
      <trkpt lat="46.81577" lon="-0.93135">
        <ele>139</ele>
        <time>2010-01-01T01:30:11Z</time>
      </trkpt>
      <trkpt lat="46.81633" lon="-0.9308">
        <ele>139</ele>
        <time>2010-01-01T01:30:23Z</time>
      </trkpt>
      <trkpt lat="46.81695" lon="-0.93067">
        <ele>139</ele>
        <time>2010-01-01T01:30:33Z</time>
      </trkpt>
      <trkpt lat="46.81745" lon="-0.93041">
        <ele>140</ele>
        <time>2010-01-01T01:30:42Z</time>
      </trkpt>
      <trkpt lat="46.81797" lon="-0.93007">
        <ele>140</ele>
        <time>2010-01-01T01:30:51Z</time>
      </trkpt>
      <trkpt lat="46.81847" lon="-0.92981">
        <ele>141</ele>
        <time>2010-01-01T01:31:00Z</time>
      </trkpt>
      <trkpt lat="46.81906" lon="-0.92972">
        <ele>140</ele>
        <time>2010-01-01T01:31:10Z</time>
      </trkpt>
      <trkpt lat="46.81941" lon="-0.92964">
        <ele>140</ele>
        <time>2010-01-01T01:31:16Z</time>
      </trkpt>
      <trkpt lat="46.81988" lon="-0.92977">
        <ele>139</ele>
        <time>2010-01-01T01:31:24Z</time>
      </trkpt>
      <trkpt lat="46.82029" lon="-0.93007">
        <ele>138</ele>
        <time>2010-01-01T01:31:32Z</time>
      </trkpt>
      <trkpt lat="46.82112" lon="-0.9308">
        <ele>133</ele>
        <time>2010-01-01T01:31:48Z</time>
      </trkpt>
      <trkpt lat="46.82159" lon="-0.93118">
        <ele>130</ele>
        <time>2010-01-01T01:31:57Z</time>
      </trkpt>
      <trkpt lat="46.82203" lon="-0.93135">
        <ele>128</ele>
        <time>2010-01-01T01:32:04Z</time>
      </trkpt>
      <trkpt lat="46.82273" lon="-0.9314">
        <ele>127</ele>
        <time>2010-01-01T01:32:16Z</time>
      </trkpt>
      <trkpt lat="46.82308" lon="-0.93144">
        <ele>126</ele>
        <time>2010-01-01T01:32:22Z</time>
      </trkpt>
      <trkpt lat="46.82382" lon="-0.93118">
        <ele>125</ele>
        <time>2010-01-01T01:32:35Z</time>
      </trkpt>
      <trkpt lat="46.82514" lon="-0.93118">
        <ele>129</ele>
        <time>2010-01-01T01:32:57Z</time>
      </trkpt>
      <trkpt lat="46.82579" lon="-0.93123">
        <ele>132</ele>
        <time>2010-01-01T01:33:07Z</time>
      </trkpt>
      <trkpt lat="46.82658" lon="-0.93135">
        <ele>137</ele>
        <time>2010-01-01T01:33:21Z</time>
      </trkpt>
      <trkpt lat="46.82717" lon="-0.93148">
        <ele>136</ele>
        <time>2010-01-01T01:33:31Z</time>
      </trkpt>
      <trkpt lat="46.82749" lon="-0.93162">
        <ele>135</ele>
        <time>2010-01-01T01:33:36Z</time>
      </trkpt>
      <trkpt lat="46.82748" lon="-0.93177">
        <ele>135</ele>
        <time>2010-01-01T01:33:38Z</time>
      </trkpt>
      <trkpt lat="46.8275" lon="-0.93248">
        <ele>135</ele>
        <time>2010-01-01T01:33:46Z</time>
      </trkpt>
      <trkpt lat="46.82759" lon="-0.93623">
        <ele>127</ele>
        <time>2010-01-01T01:34:29Z</time>
      </trkpt>
      <trkpt lat="46.82774" lon="-0.93936">
        <ele>125</ele>
        <time>2010-01-01T01:35:05Z</time>
      </trkpt>
      <trkpt lat="46.82779" lon="-0.94125">
        <ele>129</ele>
        <time>2010-01-01T01:35:26Z</time>
      </trkpt>
      <trkpt lat="46.82784" lon="-0.94183">
        <ele>130</ele>
        <time>2010-01-01T01:35:33Z</time>
      </trkpt>
      <trkpt lat="46.82799" lon="-0.94227">
        <ele>130</ele>
        <time>2010-01-01T01:35:39Z</time>
      </trkpt>
      <trkpt lat="46.82832" lon="-0.94284">
        <ele>129</ele>
        <time>2010-01-01T01:35:47Z</time>
      </trkpt>
      <trkpt lat="46.82903" lon="-0.94357">
        <ele>129</ele>
        <time>2010-01-01T01:36:02Z</time>
      </trkpt>
      <trkpt lat="46.82924" lon="-0.94396">
        <ele>129</ele>
        <time>2010-01-01T01:36:07Z</time>
      </trkpt>
      <trkpt lat="46.82936" lon="-0.94438">
        <ele>129</ele>
        <time>2010-01-01T01:36:12Z</time>
      </trkpt>
      <trkpt lat="46.82935" lon="-0.94493">
        <ele>129</ele>
        <time>2010-01-01T01:36:19Z</time>
      </trkpt>
      <trkpt lat="46.82906" lon="-0.9478">
        <ele>128</ele>
        <time>2010-01-01T01:36:52Z</time>
      </trkpt>
      <trkpt lat="46.82891" lon="-0.94843">
        <ele>128</ele>
        <time>2010-01-01T01:36:59Z</time>
      </trkpt>
      <trkpt lat="46.82838" lon="-0.9497">
        <ele>128</ele>
        <time>2010-01-01T01:37:16Z</time>
      </trkpt>
      <trkpt lat="46.82775" lon="-0.9516">
        <ele>128</ele>
        <time>2010-01-01T01:37:40Z</time>
      </trkpt>
      <trkpt lat="46.82752" lon="-0.95207">
        <ele>128</ele>
        <time>2010-01-01T01:37:47Z</time>
      </trkpt>
      <trkpt lat="46.82708" lon="-0.9528">
        <ele>127</ele>
        <time>2010-01-01T01:37:58Z</time>
      </trkpt>
      <trkpt lat="46.82684" lon="-0.95359">
        <ele>127</ele>
        <time>2010-01-01T01:38:08Z</time>
      </trkpt>
      <trkpt lat="46.82652" lon="-0.95445">
        <ele>126</ele>
        <time>2010-01-01T01:38:19Z</time>
      </trkpt>
      <trkpt lat="46.82537" lon="-0.95598">
        <ele>124</ele>
        <time>2010-01-01T01:38:45Z</time>
      </trkpt>
      <trkpt lat="46.82525" lon="-0.95626">
        <ele>124</ele>
        <time>2010-01-01T01:38:49Z</time>
      </trkpt>
      <trkpt lat="46.8252" lon="-0.9572">
        <ele>124</ele>
        <time>2010-01-01T01:39:00Z</time>
      </trkpt>
      <trkpt lat="46.82492" lon="-0.95899">
        <ele>124</ele>
        <time>2010-01-01T01:39:21Z</time>
      </trkpt>
      <trkpt lat="46.82457" lon="-0.96067">
        <ele>121</ele>
        <time>2010-01-01T01:39:41Z</time>
      </trkpt>
      <trkpt lat="46.82465" lon="-0.96185">
        <ele>121</ele>
        <time>2010-01-01T01:39:54Z</time>
      </trkpt>
      <trkpt lat="46.82441" lon="-0.96336">
        <ele>125</ele>
        <time>2010-01-01T01:40:12Z</time>
      </trkpt>
      <trkpt lat="46.82409" lon="-0.96613">
        <ele>126</ele>
        <time>2010-01-01T01:40:44Z</time>
      </trkpt>
      <trkpt lat="46.82403" lon="-0.96685">
        <ele>125</ele>
        <time>2010-01-01T01:40:52Z</time>
      </trkpt>
      <trkpt lat="46.82405" lon="-0.9676">
        <ele>125</ele>
        <time>2010-01-01T01:41:01Z</time>
      </trkpt>
      <trkpt lat="46.82399" lon="-0.96899">
        <ele>124</ele>
        <time>2010-01-01T01:41:17Z</time>
      </trkpt>
      <trkpt lat="46.82411" lon="-0.97087">
        <ele>127</ele>
        <time>2010-01-01T01:41:38Z</time>
      </trkpt>
      <trkpt lat="46.82423" lon="-0.97203">
        <ele>127</ele>
        <time>2010-01-01T01:41:52Z</time>
      </trkpt>
      <trkpt lat="46.82483" lon="-0.97403">
        <ele>121</ele>
        <time>2010-01-01T01:42:17Z</time>
      </trkpt>
      <trkpt lat="46.8249" lon="-0.97452">
        <ele>120</ele>
        <time>2010-01-01T01:42:22Z</time>
      </trkpt>
      <trkpt lat="46.8249" lon="-0.97483">
        <ele>119</ele>
        <time>2010-01-01T01:42:26Z</time>
      </trkpt>
      <trkpt lat="46.82484" lon="-0.97521">
        <ele>118</ele>
        <time>2010-01-01T01:42:30Z</time>
      </trkpt>
      <trkpt lat="46.82457" lon="-0.97604">
        <ele>118</ele>
        <time>2010-01-01T01:42:41Z</time>
      </trkpt>
      <trkpt lat="46.82454" lon="-0.97638">
        <ele>117</ele>
        <time>2010-01-01T01:42:45Z</time>
      </trkpt>
      <trkpt lat="46.8247" lon="-0.97708">
        <ele>116</ele>
        <time>2010-01-01T01:42:53Z</time>
      </trkpt>
      <trkpt lat="46.82508" lon="-0.9793">
        <ele>116</ele>
        <time>2010-01-01T01:43:19Z</time>
      </trkpt>
      <trkpt lat="46.82507" lon="-0.98018">
        <ele>116</ele>
        <time>2010-01-01T01:43:29Z</time>
      </trkpt>
      <trkpt lat="46.82502" lon="-0.98047">
        <ele>115</ele>
        <time>2010-01-01T01:43:33Z</time>
      </trkpt>
      <trkpt lat="46.82502" lon="-0.98048">
        <ele>115</ele>
        <time>2010-01-01T01:43:33Z</time>
      </trkpt>
      <trkpt lat="46.82479" lon="-0.98164">
        <ele>112</ele>
        <time>2010-01-01T01:43:47Z</time>
      </trkpt>
      <trkpt lat="46.82409" lon="-0.98342">
        <ele>111</ele>
        <time>2010-01-01T01:44:10Z</time>
      </trkpt>
      <trkpt lat="46.82406" lon="-0.98411">
        <ele>112</ele>
        <time>2010-01-01T01:44:18Z</time>
      </trkpt>
      <trkpt lat="46.82511" lon="-0.98464">
        <ele>115</ele>
        <time>2010-01-01T01:44:36Z</time>
      </trkpt>
      <trkpt lat="46.82643" lon="-0.98475">
        <ele>118</ele>
        <time>2010-01-01T01:44:58Z</time>
      </trkpt>
      <trkpt lat="46.82694" lon="-0.98488">
        <ele>119</ele>
        <time>2010-01-01T01:45:07Z</time>
      </trkpt>
      <trkpt lat="46.82743" lon="-0.98477">
        <ele>120</ele>
        <time>2010-01-01T01:45:15Z</time>
      </trkpt>
      <trkpt lat="46.82769" lon="-0.98464">
        <ele>119</ele>
        <time>2010-01-01T01:45:20Z</time>
      </trkpt>
      <trkpt lat="46.82787" lon="-0.9845">
        <ele>119</ele>
        <time>2010-01-01T01:45:23Z</time>
      </trkpt>
      <trkpt lat="46.82799" lon="-0.98431">
        <ele>118</ele>
        <time>2010-01-01T01:45:26Z</time>
      </trkpt>
      <trkpt lat="46.82929" lon="-0.98206">
        <ele>119</ele>
        <time>2010-01-01T01:46:00Z</time>
      </trkpt>
      <trkpt lat="46.82984" lon="-0.98117">
        <ele>120</ele>
        <time>2010-01-01T01:46:14Z</time>
      </trkpt>
      <trkpt lat="46.83015" lon="-0.98069">
        <ele>119</ele>
        <time>2010-01-01T01:46:21Z</time>
      </trkpt>
      <trkpt lat="46.83036" lon="-0.98025">
        <ele>118</ele>
        <time>2010-01-01T01:46:27Z</time>
      </trkpt>
      <trkpt lat="46.83041" lon="-0.97992">
        <ele>118</ele>
        <time>2010-01-01T01:46:31Z</time>
      </trkpt>
      <trkpt lat="46.83038" lon="-0.97957">
        <ele>118</ele>
        <time>2010-01-01T01:46:35Z</time>
      </trkpt>
      <trkpt lat="46.83" lon="-0.97744">
        <ele>116</ele>
        <time>2010-01-01T01:47:00Z</time>
      </trkpt>
      <trkpt lat="46.82993" lon="-0.9763">
        <ele>117</ele>
        <time>2010-01-01T01:47:13Z</time>
      </trkpt>
      <trkpt lat="46.83079" lon="-0.97277">
        <ele>121</ele>
        <time>2010-01-01T01:47:56Z</time>
      </trkpt>
      <trkpt lat="46.83213" lon="-0.97076">
        <ele>117</ele>
        <time>2010-01-01T01:48:28Z</time>
      </trkpt>
      <trkpt lat="46.83213" lon="-0.97077">
        <ele>117</ele>
        <time>2010-01-01T01:48:28Z</time>
      </trkpt>
      <trkpt lat="46.83259" lon="-0.97007">
        <ele>116</ele>
        <time>2010-01-01T01:48:39Z</time>
      </trkpt>
      <trkpt lat="46.83412" lon="-0.96875">
        <ele>106</ele>
        <time>2010-01-01T01:49:09Z</time>
      </trkpt>
      <trkpt lat="46.83598" lon="-0.96545">
        <ele>107</ele>
        <time>2010-01-01T01:49:58Z</time>
      </trkpt>
      <trkpt lat="46.83907" lon="-0.9585">
        <ele>124</ele>
        <time>2010-01-01T01:51:32Z</time>
      </trkpt>
      <trkpt lat="46.84049" lon="-0.95607">
        <ele>129</ele>
        <time>2010-01-01T01:52:09Z</time>
      </trkpt>
      <trkpt lat="46.84394" lon="-0.95174">
        <ele>136</ele>
        <time>2010-01-01T01:53:25Z</time>
      </trkpt>
      <trkpt lat="46.84465" lon="-0.9501">
        <ele>134</ele>
        <time>2010-01-01T01:53:47Z</time>
      </trkpt>
      <trkpt lat="46.84516" lon="-0.94948">
        <ele>131</ele>
        <time>2010-01-01T01:53:58Z</time>
      </trkpt>
      <trkpt lat="46.84582" lon="-0.94942">
        <ele>129</ele>
        <time>2010-01-01T01:54:09Z</time>
      </trkpt>
      <trkpt lat="46.8467" lon="-0.95004">
        <ele>123</ele>
        <time>2010-01-01T01:54:25Z</time>
      </trkpt>
      <trkpt lat="46.84737" lon="-0.94996">
        <ele>117</ele>
        <time>2010-01-01T01:54:36Z</time>
      </trkpt>
      <trkpt lat="46.84812" lon="-0.94943">
        <ele>117</ele>
        <time>2010-01-01T01:54:50Z</time>
      </trkpt>
      <trkpt lat="46.84858" lon="-0.94894">
        <ele>120</ele>
        <time>2010-01-01T01:55:00Z</time>
      </trkpt>
      <trkpt lat="46.84968" lon="-0.94786">
        <ele>125</ele>
        <time>2010-01-01T01:55:22Z</time>
      </trkpt>
      <trkpt lat="46.85086" lon="-0.94736">
        <ele>129</ele>
        <time>2010-01-01T01:55:42Z</time>
      </trkpt>
      <trkpt lat="46.85042" lon="-0.94919">
        <ele>126</ele>
        <time>2010-01-01T01:56:04Z</time>
      </trkpt>
      <trkpt lat="46.85041" lon="-0.95024">
        <ele>123</ele>
        <time>2010-01-01T01:56:16Z</time>
      </trkpt>
      <trkpt lat="46.85041" lon="-0.95025">
        <ele>123</ele>
        <time>2010-01-01T01:56:16Z</time>
      </trkpt>
      <trkpt lat="46.85041" lon="-0.95081">
        <ele>121</ele>
        <time>2010-01-01T01:56:23Z</time>
      </trkpt>
      <trkpt lat="46.8507" lon="-0.95223">
        <ele>121</ele>
        <time>2010-01-01T01:56:40Z</time>
      </trkpt>
      <trkpt lat="46.85076" lon="-0.95245">
        <ele>121</ele>
        <time>2010-01-01T01:56:42Z</time>
      </trkpt>
      <trkpt lat="46.85126" lon="-0.95389">
        <ele>120</ele>
        <time>2010-01-01T01:57:01Z</time>
      </trkpt>
      <trkpt lat="46.85222" lon="-0.95544">
        <ele>111</ele>
        <time>2010-01-01T01:57:25Z</time>
      </trkpt>
      <trkpt lat="46.85291" lon="-0.95625">
        <ele>105</ele>
        <time>2010-01-01T01:57:40Z</time>
      </trkpt>
      <trkpt lat="46.85457" lon="-0.95799">
        <ele>107</ele>
        <time>2010-01-01T01:58:14Z</time>
      </trkpt>
      <trkpt lat="46.85662" lon="-0.96142">
        <ele>112</ele>
        <time>2010-01-01T01:59:06Z</time>
      </trkpt>
      <trkpt lat="46.86028" lon="-0.9679">
        <ele>136</ele>
        <time>2010-01-01T02:00:41Z</time>
      </trkpt>
      <trkpt lat="46.86157" lon="-0.97012">
        <ele>137</ele>
        <time>2010-01-01T02:01:15Z</time>
      </trkpt>
      <trkpt lat="46.86249" lon="-0.97176">
        <ele>137</ele>
        <time>2010-01-01T02:01:39Z</time>
      </trkpt>
      <trkpt lat="46.86197" lon="-0.97239">
        <ele>135</ele>
        <time>2010-01-01T02:01:50Z</time>
      </trkpt>
      <trkpt lat="46.86162" lon="-0.97289">
        <ele>133</ele>
        <time>2010-01-01T02:01:58Z</time>
      </trkpt>
      <trkpt lat="46.86122" lon="-0.97331">
        <ele>132</ele>
        <time>2010-01-01T02:02:06Z</time>
      </trkpt>
      <trkpt lat="46.8609" lon="-0.97354">
        <ele>132</ele>
        <time>2010-01-01T02:02:12Z</time>
      </trkpt>
      <trkpt lat="46.85975" lon="-0.9749">
        <ele>132</ele>
        <time>2010-01-01T02:02:37Z</time>
      </trkpt>
      <trkpt lat="46.85936" lon="-0.97529">
        <ele>131</ele>
        <time>2010-01-01T02:02:45Z</time>
      </trkpt>
      <trkpt lat="46.85809" lon="-0.97641">
        <ele>126</ele>
        <time>2010-01-01T02:03:10Z</time>
      </trkpt>
      <trkpt lat="46.85727" lon="-0.97707">
        <ele>126</ele>
        <time>2010-01-01T02:03:25Z</time>
      </trkpt>
      <trkpt lat="46.85691" lon="-0.97743">
        <ele>127</ele>
        <time>2010-01-01T02:03:33Z</time>
      </trkpt>
      <trkpt lat="46.85566" lon="-0.97915">
        <ele>125</ele>
        <time>2010-01-01T02:04:01Z</time>
      </trkpt>
      <trkpt lat="46.85527" lon="-0.9797">
        <ele>125</ele>
        <time>2010-01-01T02:04:10Z</time>
      </trkpt>
      <trkpt lat="46.85514" lon="-0.97985">
        <ele>125</ele>
        <time>2010-01-01T02:04:13Z</time>
      </trkpt>
      <trkpt lat="46.85514" lon="-0.97986">
        <ele>125</ele>
        <time>2010-01-01T02:04:13Z</time>
      </trkpt>
      <trkpt lat="46.85391" lon="-0.98119">
        <ele>126</ele>
        <time>2010-01-01T02:04:39Z</time>
      </trkpt>
      <trkpt lat="46.85294" lon="-0.98234">
        <ele>123</ele>
        <time>2010-01-01T02:04:59Z</time>
      </trkpt>
      <trkpt lat="46.85251" lon="-0.9832">
        <ele>123</ele>
        <time>2010-01-01T02:05:12Z</time>
      </trkpt>
      <trkpt lat="46.85208" lon="-0.98447">
        <ele>120</ele>
        <time>2010-01-01T02:05:28Z</time>
      </trkpt>
      <trkpt lat="46.85195" lon="-0.98474">
        <ele>119</ele>
        <time>2010-01-01T02:05:32Z</time>
      </trkpt>
      <trkpt lat="46.85174" lon="-0.98505">
        <ele>119</ele>
        <time>2010-01-01T02:05:37Z</time>
      </trkpt>
      <trkpt lat="46.85152" lon="-0.98528">
        <ele>119</ele>
        <time>2010-01-01T02:05:41Z</time>
      </trkpt>
      <trkpt lat="46.85127" lon="-0.98549">
        <ele>120</ele>
        <time>2010-01-01T02:05:46Z</time>
      </trkpt>
      <trkpt lat="46.85123" lon="-0.98562">
        <ele>120</ele>
        <time>2010-01-01T02:05:47Z</time>
      </trkpt>
      <trkpt lat="46.85073" lon="-0.98642">
        <ele>119</ele>
        <time>2010-01-01T02:06:00Z</time>
      </trkpt>
      <trkpt lat="46.85037" lon="-0.98687">
        <ele>118</ele>
        <time>2010-01-01T02:06:08Z</time>
      </trkpt>
      <trkpt lat="46.84991" lon="-0.98728">
        <ele>117</ele>
        <time>2010-01-01T02:06:17Z</time>
      </trkpt>
      <trkpt lat="46.84938" lon="-0.98749">
        <ele>118</ele>
        <time>2010-01-01T02:06:26Z</time>
      </trkpt>
      <trkpt lat="46.84917" lon="-0.98762">
        <ele>118</ele>
        <time>2010-01-01T02:06:30Z</time>
      </trkpt>
      <trkpt lat="46.84901" lon="-0.98782">
        <ele>119</ele>
        <time>2010-01-01T02:06:33Z</time>
      </trkpt>
      <trkpt lat="46.84887" lon="-0.98782">
        <ele>119</ele>
        <time>2010-01-01T02:06:36Z</time>
      </trkpt>
      <trkpt lat="46.84869" lon="-0.98768">
        <ele>120</ele>
        <time>2010-01-01T02:06:39Z</time>
      </trkpt>
      <trkpt lat="46.84859" lon="-0.98773">
        <ele>120</ele>
        <time>2010-01-01T02:06:41Z</time>
      </trkpt>
      <trkpt lat="46.84854" lon="-0.98773">
        <ele>120</ele>
        <time>2010-01-01T02:06:42Z</time>
      </trkpt>
      <trkpt lat="46.84855" lon="-0.98815">
        <ele>120</ele>
        <time>2010-01-01T02:06:46Z</time>
      </trkpt>
      <trkpt lat="46.84861" lon="-0.98871">
        <ele>120</ele>
        <time>2010-01-01T02:06:53Z</time>
      </trkpt>
      <trkpt lat="46.84858" lon="-0.98902">
        <ele>120</ele>
        <time>2010-01-01T02:06:56Z</time>
      </trkpt>
      <trkpt lat="46.84842" lon="-0.9892">
        <ele>121</ele>
        <time>2010-01-01T02:07:00Z</time>
      </trkpt>
      <trkpt lat="46.84757" lon="-0.98959">
        <ele>122</ele>
        <time>2010-01-01T02:07:15Z</time>
      </trkpt>
      <trkpt lat="46.84725" lon="-0.98984">
        <ele>122</ele>
        <time>2010-01-01T02:07:21Z</time>
      </trkpt>
      <trkpt lat="46.8461" lon="-0.99059">
        <ele>120</ele>
        <time>2010-01-01T02:07:42Z</time>
      </trkpt>
      <trkpt lat="46.84594" lon="-0.99076">
        <ele>119</ele>
        <time>2010-01-01T02:07:45Z</time>
      </trkpt>
      <trkpt lat="46.84648" lon="-0.99183">
        <ele>118</ele>
        <time>2010-01-01T02:08:00Z</time>
      </trkpt>
      <trkpt lat="46.84655" lon="-0.99201">
        <ele>118</ele>
        <time>2010-01-01T02:08:02Z</time>
      </trkpt>
      <trkpt lat="46.84668" lon="-0.99255">
        <ele>118</ele>
        <time>2010-01-01T02:08:09Z</time>
      </trkpt>
      <trkpt lat="46.84693" lon="-0.99341">
        <ele>118</ele>
        <time>2010-01-01T02:08:20Z</time>
      </trkpt>
      <trkpt lat="46.84702" lon="-0.99372">
        <ele>118</ele>
        <time>2010-01-01T02:08:23Z</time>
      </trkpt>
      <trkpt lat="46.84713" lon="-0.9939">
        <ele>118</ele>
        <time>2010-01-01T02:08:26Z</time>
      </trkpt>
      <trkpt lat="46.84727" lon="-0.99409">
        <ele>118</ele>
        <time>2010-01-01T02:08:29Z</time>
      </trkpt>
      <trkpt lat="46.84777" lon="-0.99461">
        <ele>118</ele>
        <time>2010-01-01T02:08:40Z</time>
      </trkpt>
      <trkpt lat="46.84793" lon="-0.99482">
        <ele>118</ele>
        <time>2010-01-01T02:08:43Z</time>
      </trkpt>
      <trkpt lat="46.84903" lon="-0.99683">
        <ele>117</ele>
        <time>2010-01-01T02:09:13Z</time>
      </trkpt>
      <trkpt lat="46.8493" lon="-0.99738">
        <ele>116</ele>
        <time>2010-01-01T02:09:20Z</time>
      </trkpt>
      <trkpt lat="46.84941" lon="-0.99768">
        <ele>116</ele>
        <time>2010-01-01T02:09:24Z</time>
      </trkpt>
      <trkpt lat="46.84963" lon="-0.99837">
        <ele>116</ele>
        <time>2010-01-01T02:09:33Z</time>
      </trkpt>
      <trkpt lat="46.84967" lon="-0.99859">
        <ele>116</ele>
        <time>2010-01-01T02:09:36Z</time>
      </trkpt>
      <trkpt lat="46.84968" lon="-0.99883">
        <ele>116</ele>
        <time>2010-01-01T02:09:38Z</time>
      </trkpt>
      <trkpt lat="46.84959" lon="-1.00044">
        <ele>113</ele>
        <time>2010-01-01T02:09:57Z</time>
      </trkpt>
      <trkpt lat="46.84964" lon="-1.00089">
        <ele>113</ele>
        <time>2010-01-01T02:10:02Z</time>
      </trkpt>
      <trkpt lat="46.84983" lon="-1.0017">
        <ele>114</ele>
        <time>2010-01-01T02:10:12Z</time>
      </trkpt>
      <trkpt lat="46.84994" lon="-1.00206">
        <ele>113</ele>
        <time>2010-01-01T02:10:16Z</time>
      </trkpt>
      <trkpt lat="46.85078" lon="-1.00417">
        <ele>111</ele>
        <time>2010-01-01T02:10:44Z</time>
      </trkpt>
      <trkpt lat="46.85104" lon="-1.00442">
        <ele>110</ele>
        <time>2010-01-01T02:10:49Z</time>
      </trkpt>
      <trkpt lat="46.85281" lon="-1.00571">
        <ele>110</ele>
        <time>2010-01-01T02:11:22Z</time>
      </trkpt>
      <trkpt lat="46.85326" lon="-1.00583">
        <ele>109</ele>
        <time>2010-01-01T02:11:30Z</time>
      </trkpt>
      <trkpt lat="46.85347" lon="-1.00588">
        <ele>109</ele>
        <time>2010-01-01T02:11:33Z</time>
      </trkpt>
      <trkpt lat="46.85442" lon="-1.00633">
        <ele>108</ele>
        <time>2010-01-01T02:11:50Z</time>
      </trkpt>
      <trkpt lat="46.85483" lon="-1.00655">
        <ele>108</ele>
        <time>2010-01-01T02:11:57Z</time>
      </trkpt>
      <trkpt lat="46.85562" lon="-1.00711">
        <ele>108</ele>
        <time>2010-01-01T02:12:12Z</time>
      </trkpt>
      <trkpt lat="46.85689" lon="-1.0083">
        <ele>112</ele>
        <time>2010-01-01T02:12:37Z</time>
      </trkpt>
      <trkpt lat="46.8584" lon="-1.00918">
        <ele>113</ele>
        <time>2010-01-01T02:13:04Z</time>
      </trkpt>
      <trkpt lat="46.8584" lon="-1.00929">
        <ele>113</ele>
        <time>2010-01-01T02:13:05Z</time>
      </trkpt>
      <trkpt lat="46.85842" lon="-1.00935">
        <ele>113</ele>
        <time>2010-01-01T02:13:06Z</time>
      </trkpt>
      <trkpt lat="46.85847" lon="-1.0094">
        <ele>113</ele>
        <time>2010-01-01T02:13:07Z</time>
      </trkpt>
      <trkpt lat="46.85853" lon="-1.00942">
        <ele>113</ele>
        <time>2010-01-01T02:13:08Z</time>
      </trkpt>
      <trkpt lat="46.85855" lon="-1.0094">
        <ele>113</ele>
        <time>2010-01-01T02:13:09Z</time>
      </trkpt>
      <trkpt lat="46.85879" lon="-1.00946">
        <ele>113</ele>
        <time>2010-01-01T02:13:13Z</time>
      </trkpt>
      <trkpt lat="46.85931" lon="-1.00971">
        <ele>113</ele>
        <time>2010-01-01T02:13:22Z</time>
      </trkpt>
      <trkpt lat="46.85941" lon="-1.00971">
        <ele>113</ele>
        <time>2010-01-01T02:13:24Z</time>
      </trkpt>
      <trkpt lat="46.85947" lon="-1.0097">
        <ele>113</ele>
        <time>2010-01-01T02:13:25Z</time>
      </trkpt>
      <trkpt lat="46.8595" lon="-1.00968">
        <ele>113</ele>
        <time>2010-01-01T02:13:25Z</time>
      </trkpt>
      <trkpt lat="46.85951" lon="-1.00963">
        <ele>113</ele>
        <time>2010-01-01T02:13:26Z</time>
      </trkpt>
      <trkpt lat="46.85962" lon="-1.0095">
        <ele>113</ele>
        <time>2010-01-01T02:13:28Z</time>
      </trkpt>
      <trkpt lat="46.86002" lon="-1.00886">
        <ele>112</ele>
        <time>2010-01-01T02:13:38Z</time>
      </trkpt>
      <trkpt lat="46.86055" lon="-1.00815">
        <ele>114</ele>
        <time>2010-01-01T02:13:50Z</time>
      </trkpt>
      <trkpt lat="46.86094" lon="-1.00769">
        <ele>115</ele>
        <time>2010-01-01T02:13:58Z</time>
      </trkpt>
      <trkpt lat="46.86138" lon="-1.00732">
        <ele>116</ele>
        <time>2010-01-01T02:14:07Z</time>
      </trkpt>
      <trkpt lat="46.86182" lon="-1.00705">
        <ele>116</ele>
        <time>2010-01-01T02:14:15Z</time>
      </trkpt>
      <trkpt lat="46.8627" lon="-1.00662">
        <ele>118</ele>
        <time>2010-01-01T02:14:30Z</time>
      </trkpt>
      <trkpt lat="46.86315" lon="-1.00632">
        <ele>119</ele>
        <time>2010-01-01T02:14:38Z</time>
      </trkpt>
      <trkpt lat="46.86335" lon="-1.00614">
        <ele>119</ele>
        <time>2010-01-01T02:14:42Z</time>
      </trkpt>
      <trkpt lat="46.86381" lon="-1.00562">
        <ele>120</ele>
        <time>2010-01-01T02:14:52Z</time>
      </trkpt>
      <trkpt lat="46.86381" lon="-1.00562">
        <ele>119.2</ele>
        <time>2010-01-01T00:00:26Z</time>
      </trkpt>
    </trkseg>
  </trk>
</gpx>